Time;durP1;ratioP1;P1;durP2;ratioP2;P2;SDS_P1;SDS_P2;PMS_P1;PMS_P2;Temp;Humidity;BMP_temperature;BMP_pressure;BME280_temperature;BME280_humidity;BME280_pressure;Samples;Min_cycle;Max_cycle;Signal;HPM_P1;HPM_P2
2024/02/15 00:02:14;;;;;;;41.08;24.13;;;;;;;10.89;100.00;101598.66;5082407;28;20498;-73
2024/02/15 00:04:40;;;;;;;41.25;23.77;;;;;;;10.91;100.00;101596.03;5082424;28;20060;-77
2024/02/15 00:07:05;;;;;;;40.10;24.65;;;;;;;10.91;100.00;101590.75;5084510;28;20028;-76
2024/02/15 00:09:31;;;;;;;40.08;24.20;;;;;;;10.91;100.00;101593.38;5084544;28;20032;-78
2024/02/15 00:11:57;;;;;;;43.10;25.08;;;;;;;10.90;100.00;101583.66;5086224;28;20027;-79
2024/02/15 00:14:22;;;;;;;38.72;23.40;;;;;;;10.92;100.00;101587.22;5064820;28;20055;-80
2024/02/15 00:16:47;;;;;;;40.95;23.33;;;;;;;10.91;100.00;101580.16;5086719;28;20250;-79
2024/02/15 00:19:16;;;;;;;39.60;23.13;;;;;;;10.90;100.00;101586.31;5082997;28;20391;-72
2024/02/15 00:21:45;;;;;;;38.70;23.17;;;;;;;10.90;100.00;101586.31;5085370;28;20032;-74
2024/02/15 00:24:11;;;;;;;38.90;23.30;;;;;;;10.86;100.00;101585.34;5065598;28;20039;-70
2024/02/15 00:26:36;;;;;;;35.80;21.45;;;;;;;10.91;100.00;101583.69;5066552;28;20487;-73
2024/02/15 00:29:02;;;;;;;39.03;21.63;;;;;;;10.91;100.00;101580.16;5084595;28;20036;-75
2024/02/15 00:31:27;;;;;;;36.58;20.52;;;;;;;10.91;100.00;101574.88;5083084;28;20542;-78
2024/02/15 00:33:53;;;;;;;38.38;22.13;;;;;;;10.87;100.00;101580.97;5085947;28;20039;-78
2024/02/15 00:36:19;;;;;;;34.70;21.15;;;;;;;10.87;100.00;101578.34;5082710;28;20044;-79
2024/02/15 00:38:45;;;;;;;36.10;20.70;;;;;;;10.90;100.00;101584.53;5082278;28;20165;-76
2024/02/15 00:41:10;;;;;;;36.47;21.10;;;;;;;10.90;100.00;101578.38;5084492;28;20056;-79
2024/02/15 00:43:36;;;;;;;37.13;20.60;;;;;;;10.84;100.00;101570.34;5083668;28;20036;-78
2024/02/15 00:46:01;;;;;;;34.15;19.85;;;;;;;10.88;100.00;101572.16;5083582;28;20529;-78
2024/02/15 00:48:28;;;;;;;35.38;19.23;;;;;;;10.86;100.00;101571.25;5067002;28;20036;-78
2024/02/15 00:50:54;;;;;;;35.05;20.35;;;;;;;10.85;100.00;101572.09;5082467;28;20122;-79
2024/02/15 00:53:20;;;;;;;33.78;19.88;;;;;;;10.85;100.00;101580.97;5085682;28;20386;-77
2024/02/15 00:55:45;;;;;;;34.63;18.45;;;;;;;10.85;100.00;101574.75;5064643;28;20032;-77
2024/02/15 00:58:11;;;;;;;32.05;18.38;;;;;;;10.86;100.00;101581.84;5084362;28;20739;-78
2024/02/15 01:00:37;;;;;;;33.45;18.70;;;;;;;10.86;100.00;101572.13;5065697;28;20077;-77
2024/02/15 01:03:02;;;;;;;33.17;17.98;;;;;;;10.87;100.00;101584.50;5083330;28;20491;-78
2024/02/15 01:05:28;;;;;;;33.25;17.75;;;;;;;10.81;100.00;101580.00;5066712;28;20116;-77
2024/02/15 01:07:55;;;;;;;34.38;18.30;;;;;;;10.82;100.00;101581.78;5064020;28;20033;-73
2024/02/15 01:10:21;;;;;;;34.10;18.55;;;;;;;10.82;100.00;101578.28;5067503;28;20039;-79
2024/02/15 01:12:46;;;;;;;32.53;17.90;;;;;;;10.82;100.00;101568.56;5082072;28;20021;-75
2024/02/15 01:15:11;;;;;;;32.95;17.30;;;;;;;10.84;100.00;101575.66;5083857;28;20032;-71
2024/02/15 01:17:37;;;;;;;36.25;17.95;;;;;;;10.79;100.00;101564.97;5082584;28;20399;-71
2024/02/15 01:20:02;;;;;;;32.90;16.60;;;;;;;10.78;100.00;101561.44;5082238;28;20498;-72
2024/02/15 01:22:28;;;;;;;34.22;17.13;;;;;;;10.82;100.00;101559.75;5083864;28;20501;-71
2024/02/15 01:24:53;;;;;;;31.05;16.67;;;;;;;10.80;100.00;101553.53;5081992;28;20029;-82
2024/02/15 01:27:19;;;;;;;33.45;17.15;;;;;;;10.73;100.00;101549.94;5081927;28;20029;-82
2024/02/15 01:29:45;;;;;;;29.90;15.60;;;;;;;10.76;100.00;101560.56;5081819;28;20032;-81
2024/02/15 01:32:10;;;;;;;30.25;14.93;;;;;;;10.77;100.00;101559.66;5085730;28;20024;-82
2024/02/15 01:34:36;;;;;;;31.45;15.55;;;;;;;10.78;100.00;101564.09;5083570;28;20024;-83
2024/02/15 01:37:01;;;;;;;30.88;15.10;;;;;;;10.75;100.00;101560.53;5083751;28;20033;-82
2024/02/15 01:39:26;;;;;;;30.90;14.70;;;;;;;10.75;100.00;101560.53;5082432;28;20044;-82
2024/02/15 01:41:55;;;;;;;31.80;14.30;;;;;;;10.77;100.00;101549.09;5085113;28;20054;-80
2024/02/15 01:44:23;;;;;;;29.08;14.20;;;;;;;10.80;100.00;101550.88;5081277;28;20118;-81
2024/02/15 01:46:49;;;;;;;32.85;15.00;;;;;;;10.75;100.00;101550.81;5081534;28;20044;-81
2024/02/15 01:49:15;;;;;;;29.80;13.98;;;;;;;10.73;100.00;101552.56;5085290;28;20058;-78
2024/02/15 01:51:43;;;;;;;30.40;14.52;;;;;;;10.75;100.00;101542.91;5082479;28;20028;-76
2024/02/15 01:54:09;;;;;;;29.92;13.93;;;;;;;10.76;100.00;101533.19;5083595;28;20036;-72
2024/02/15 01:56:36;;;;;;;30.58;14.07;;;;;;;10.74;100.00;101543.75;5083338;28;20035;-70
2024/02/15 01:59:02;;;;;;;30.35;13.52;;;;;;;10.77;100.00;101542.91;5067655;28;20059;-72
2024/02/15 02:01:32;;;;;;;30.08;14.68;;;;;;;10.75;100.00;101531.44;5081691;28;20021;-70
2024/02/15 02:03:58;;;;;;;29.98;14.32;;;;;;;10.74;100.00;101524.38;5084216;28;20487;-71
2024/02/15 02:06:24;;;;;;;31.70;14.23;;;;;;;10.75;100.00;101534.09;5080693;28;20032;-71
2024/02/15 02:08:50;;;;;;;30.98;14.52;;;;;;;10.74;100.00;101527.88;5066275;28;20107;-76
2024/02/15 02:11:15;;;;;;;29.67;14.23;;;;;;;10.75;100.00;101527.03;5081319;28;20507;-74
2024/02/15 02:13:40;;;;;;;29.23;13.73;;;;;;;10.75;100.00;101534.09;5083057;28;20039;-77
2024/02/15 02:16:28;;;;;;;30.40;13.63;;;;;;;10.72;100.00;101532.28;5082246;28;20495;-77
2024/02/15 02:19:00;;;;;;;29.67;13.70;;;;;;;10.70;100.00;101523.41;5080764;28;20067;-73
2024/02/15 02:21:26;;;;;;;29.88;13.75;;;;;;;10.66;100.00;101515.41;5083993;28;20106;-73
2024/02/15 02:23:58;;;;;;;31.02;13.73;;;;;;;10.63;100.00;101516.28;5080564;28;20071;-78
2024/02/15 02:26:24;;;;;;;31.65;14.00;;;;;;;10.63;100.00;101519.81;5080475;28;20025;-78
2024/02/15 02:28:53;;;;;;;32.78;14.30;;;;;;;10.62;100.00;101515.38;5080913;28;20124;-79
2024/02/15 02:31:19;;;;;;;30.92;14.35;;;;;;;10.61;100.00;101518.88;5083783;28;20360;-78
2024/02/15 02:33:51;;;;;;;29.40;13.65;;;;;;;10.59;100.00;101514.47;5084406;28;20027;-73
2024/02/15 02:36:17;;;;;;;30.25;12.40;;;;;;;10.60;100.00;101503.91;5087459;28;20059;-78
2024/02/15 02:38:45;;;;;;;31.27;13.73;;;;;;;10.59;100.00;101503.88;5085286;28;20119;-70
2024/02/15 02:41:10;;;;;;;29.15;13.63;;;;;;;10.59;100.00;101498.59;5086196;28;20447;-70
2024/02/15 02:43:37;;;;;;;30.05;12.82;;;;;;;10.62;100.00;101511.84;5086243;28;20111;-78
2024/02/15 02:46:04;;;;;;;28.27;12.45;;;;;;;10.64;100.00;101499.53;5085744;28;20056;-72
2024/02/15 02:48:30;;;;;;;30.27;12.95;;;;;;;10.58;100.00;101505.63;5087316;28;20032;-73
2024/02/15 02:50:55;;;;;;;31.08;12.75;;;;;;;10.57;100.00;101502.94;5066688;28;20031;-76
2024/02/15 02:53:21;;;;;;;28.48;12.95;;;;;;;10.58;100.00;101512.66;5087882;28;20038;-77
2024/02/15 02:55:46;;;;;;;30.25;12.50;;;;;;;10.57;100.00;101509.16;5084192;28;20035;-71
2024/02/15 02:58:12;;;;;;;27.63;11.98;;;;;;;10.57;100.00;101505.59;5086261;28;20033;-70
2024/02/15 03:00:39;;;;;;;28.02;12.65;;;;;;;10.58;100.00;101502.97;5085384;28;20028;-70
2024/02/15 03:03:05;;;;;;;29.35;13.02;;;;;;;10.59;100.00;101501.25;5085161;28;20025;-70
2024/02/15 03:05:30;;;;;;;26.95;12.30;;;;;;;10.58;100.00;101496.81;5086415;28;20048;-70
2024/02/15 03:07:56;;;;;;;28.17;12.52;;;;;;;10.59;100.00;101498.59;5084057;28;20067;-77
2024/02/15 03:10:23;;;;;;;29.45;12.77;;;;;;;10.59;100.00;101498.59;5087826;28;20024;-70
2024/02/15 03:12:49;;;;;;;28.95;12.50;;;;;;;10.57;100.00;101489.72;5084749;28;20036;-81
2024/02/15 03:15:14;;;;;;;29.45;12.90;;;;;;;10.58;100.00;101491.53;5086970;28;20119;-78
2024/02/15 03:17:41;;;;;;;28.52;12.98;;;;;;;10.58;100.00;101492.41;5085173;28;20470;-82
2024/02/15 03:20:23;;;;;;;27.52;12.45;;;;;;;10.57;100.00;101493.28;5086298;28;20032;-80
2024/02/15 03:22:59;;;;;;;29.17;12.32;;;;;;;10.60;100.00;101484.47;5083759;28;20032;-81
2024/02/15 03:25:25;;;;;;;28.67;12.27;;;;;;;10.56;100.00;101487.97;5083487;28;20025;-81
2024/02/15 03:27:55;;;;;;;27.52;12.80;;;;;;;10.59;100.00;101493.31;5065976;28;20075;-82
2024/02/15 03:30:23;;;;;;;29.05;12.10;;;;;;;10.58;100.00;101492.41;5069308;28;20082;-81
2024/02/15 03:32:50;;;;;;;27.65;11.23;;;;;;;10.56;100.00;101494.16;5084000;28;20455;-77
2024/02/15 03:35:17;;;;;;;27.05;11.90;;;;;;;10.52;100.00;101489.66;5086665;28;20048;-71
2024/02/15 03:37:42;;;;;;;27.05;11.70;;;;;;;10.54;100.00;101487.06;5066638;28;20189;-74
2024/02/15 03:40:09;;;;;;;29.75;11.68;;;;;;;10.52;100.00;101479.09;5086004;28;20143;-75
2024/02/15 03:42:38;;;;;;;27.98;11.10;;;;;;;10.53;100.00;101483.53;5085675;28;20055;-79
2024/02/15 03:45:06;;;;;;;29.23;12.35;;;;;;;10.53;100.00;101488.81;5066108;28;20542;-76
2024/02/15 03:47:35;;;;;;;25.77;11.05;;;;;;;10.53;100.00;101483.53;5084352;28;20029;-76
2024/02/15 03:50:02;;;;;;;26.17;11.13;;;;;;;10.54;100.00;101485.31;5067769;28;20050;-71
2024/02/15 03:52:29;;;;;;;25.63;10.63;;;;;;;10.57;100.00;101484.44;5083585;28;20017;-73
2024/02/15 03:54:56;;;;;;;25.67;10.95;;;;;;;10.57;100.00;101485.34;5086583;28;20470;-71
2024/02/15 03:57:22;;;;;;;26.30;10.77;;;;;;;10.59;100.00;101485.38;5082894;28;20036;-71
2024/02/15 03:59:52;;;;;;;27.83;10.70;;;;;;;10.57;100.00;101479.16;5068093;28;20024;-72
2024/02/15 04:02:19;;;;;;;28.08;10.18;;;;;;;10.57;100.00;101479.16;5083297;28;20036;-75
2024/02/15 04:04:46;;;;;;;24.88;10.40;;;;;;;10.58;100.00;101481.81;5067476;28;20389;-75
2024/02/15 04:07:14;;;;;;;26.30;10.20;;;;;;;10.59;100.00;101488.03;5083553;28;20031;-76
2024/02/15 04:09:40;;;;;;;26.02;10.00;;;;;;;10.61;100.00;101488.91;5067241;28;20029;-74
2024/02/15 04:12:06;;;;;;;24.67;9.30;;;;;;;10.62;100.00;101488.06;5084666;28;20550;-72
2024/02/15 04:14:33;;;;;;;26.75;9.43;;;;;;;10.63;100.00;101497.78;5083370;28;20059;-72
2024/02/15 04:16:59;;;;;;;25.27;8.60;;;;;;;10.66;100.00;101488.97;5085451;28;20475;-71
2024/02/15 04:19:24;;;;;;;24.20;9.00;;;;;;;10.66;100.00;101491.63;5082082;28;20036;-72
2024/02/15 04:21:50;;;;;;;25.15;8.93;;;;;;;10.67;100.00;101483.72;5085524;28;20036;-73
2024/02/15 04:24:16;;;;;;;25.00;8.50;;;;;;;10.68;100.00;101487.25;5083199;28;20507;-71
2024/02/15 04:26:41;;;;;;;24.50;8.70;;;;;;;10.68;100.00;101479.34;5084487;28;20031;-76
2024/02/15 04:29:10;;;;;;;22.48;8.00;;;;;;;10.70;100.00;101473.16;5083861;28;20452;-73
2024/02/15 04:31:39;;;;;;;23.52;8.10;;;;;;;10.69;100.00;101471.41;5083715;28;20036;-79
2024/02/15 04:34:04;;;;;;;26.25;8.80;;;;;;;10.66;100.00;101468.72;5084305;28;20032;-71
2024/02/15 04:36:33;;;;;;;24.20;8.05;;;;;;;10.66;100.00;101468.72;5082492;28;20044;-71
2024/02/15 04:38:59;;;;;;;23.63;8.38;;;;;;;10.67;100.00;101475.78;5084857;28;20028;-71
2024/02/15 04:41:25;;;;;;;24.25;8.30;;;;;;;10.66;100.00;101473.13;5081742;28;20459;-71
2024/02/15 04:43:51;;;;;;;23.38;8.10;;;;;;;10.66;100.00;101470.47;5081837;28;20038;-72
2024/02/15 04:46:17;;;;;;;24.85;8.15;;;;;;;10.64;100.00;101470.44;5084907;28;20544;-71
2024/02/15 04:48:42;;;;;;;23.83;8.20;;;;;;;10.62;100.00;101464.25;5082796;28;20024;-71
2024/02/15 04:51:10;;;;;;;24.27;8.10;;;;;;;10.62;100.00;101461.63;5083638;28;20078;-71
2024/02/15 04:53:36;;;;;;;24.50;8.20;;;;;;;10.65;100.00;101453.72;5083762;28;20034;-76
2024/02/15 04:56:06;;;;;;;25.05;8.10;;;;;;;10.64;100.00;101447.56;5081650;28;20418;-76
2024/02/15 04:58:33;;;;;;;23.42;7.60;;;;;;;10.64;100.00;101446.66;5067159;28;20040;-72
2024/02/15 05:00:59;;;;;;;22.67;7.88;;;;;;;10.64;100.00;101449.28;5082783;28;20063;-71
2024/02/15 05:03:24;;;;;;;24.10;7.75;;;;;;;10.63;100.00;101463.41;5085636;28;20060;-77
2024/02/15 05:05:50;;;;;;;24.05;8.32;;;;;;;10.63;100.00;101447.53;5082054;28;20443;-80
2024/02/15 05:08:15;;;;;;;22.67;7.72;;;;;;;10.65;100.00;101453.72;5067040;28;20428;-80
2024/02/15 05:10:41;;;;;;;21.63;7.50;;;;;;;10.67;100.00;101459.03;5083693;28;20028;-80
2024/02/15 05:13:06;;;;;;;23.27;7.53;;;;;;;10.67;100.00;101451.09;5083217;28;20036;-80
2024/02/15 05:15:32;;;;;;;23.30;7.57;;;;;;;10.67;100.00;101459.03;5085799;28;20056;-79
2024/02/15 05:17:58;;;;;;;23.65;7.60;;;;;;;10.69;100.00;101465.22;5084619;28;20054;-80
2024/02/15 05:20:26;;;;;;;23.00;7.15;;;;;;;10.68;100.00;101466.09;5063977;28;20028;-80
2024/02/15 05:22:53;;;;;;;23.00;7.63;;;;;;;10.68;100.00;101471.41;5068662;28;20032;-80
2024/02/15 05:25:22;;;;;;;21.75;7.18;;;;;;;10.66;100.00;101466.09;5086019;28;20047;-77
2024/02/15 05:27:48;;;;;;;22.35;7.20;;;;;;;10.66;100.00;101470.47;5081892;28;20060;-74
2024/02/15 05:30:14;;;;;;;21.00;7.05;;;;;;;10.68;100.00;101471.41;5084135;28;20429;-76
2024/02/15 05:32:45;;;;;;;23.95;7.18;;;;;;;10.68;100.00;101468.75;5083290;28;20096;-80
2024/02/15 05:35:11;;;;;;;23.20;7.28;;;;;;;10.68;100.00;101476.69;5083894;28;20024;-80
2024/02/15 05:37:37;;;;;;;21.35;7.07;;;;;;;10.68;100.00;101467.00;5083230;28;20028;-77
2024/02/15 05:40:02;;;;;;;21.27;6.68;;;;;;;10.67;100.00;101475.78;5082264;28;20029;-77
2024/02/15 05:42:28;;;;;;;21.63;6.60;;;;;;;10.67;100.00;101473.13;5084209;28;20545;-71
2024/02/15 05:44:53;;;;;;;23.58;7.00;;;;;;;10.67;100.00;101466.97;5063430;28;20024;-71
2024/02/15 05:47:19;;;;;;;23.05;7.20;;;;;;;10.67;100.00;101464.31;5066321;28;20043;-72
2024/02/15 05:49:47;;;;;;;23.88;7.28;;;;;;;10.64;100.00;101444.00;5081834;28;20120;-76
2024/02/15 05:52:12;;;;;;;24.10;7.10;;;;;;;10.64;100.00;101441.38;5083097;28;20030;-76
2024/02/15 05:54:39;;;;;;;23.92;7.50;;;;;;;10.64;100.00;101441.38;5064609;28;20024;-74
2024/02/15 05:57:05;;;;;;;21.58;7.00;;;;;;;10.64;100.00;101451.94;5081850;28;20021;-75
2024/02/15 05:59:30;;;;;;;24.80;7.72;;;;;;;10.63;100.00;101448.41;5065671;28;20080;-75
2024/02/15 06:01:55;;;;;;;24.25;7.55;;;;;;;10.63;100.00;101453.72;5062904;28;20032;-73
2024/02/15 06:04:23;;;;;;;21.45;6.88;;;;;;;10.64;100.00;101449.28;5084385;28;20031;-72
2024/02/15 06:06:50;;;;;;;22.75;7.25;;;;;;;10.66;100.00;101452.88;5083113;28;20028;-72
2024/02/15 06:09:16;;;;;;;23.80;7.50;;;;;;;10.62;100.00;101433.41;5087443;28;20021;-72
2024/02/15 06:11:41;;;;;;;21.33;7.50;;;;;;;10.60;100.00;101405.16;5086340;28;20441;-73
2024/02/15 06:14:06;;;;;;;23.65;7.97;;;;;;;10.61;100.00;101401.66;5086442;28;20024;-72
2024/02/15 06:16:32;;;;;;;22.30;8.02;;;;;;;10.61;100.00;101401.66;5087388;28;20031;-75
2024/02/15 06:18:59;;;;;;;22.88;8.30;;;;;;;10.58;100.00;101386.66;5085067;28;20029;-75
2024/02/15 06:21:24;;;;;;;24.48;9.02;;;;;;;10.57;100.00;101395.47;5088523;28;20356;-76
2024/02/15 06:23:50;;;;;;;23.50;8.73;;;;;;;10.56;100.00;101393.69;5066703;28;20028;-77
2024/02/15 06:26:16;;;;;;;23.40;8.88;;;;;;;10.57;100.00;101399.84;5087487;28;20055;-76
2024/02/15 06:39:41;;;;;;;21.95;8.98;;;;;;;10.57;100.00;101394.56;5086167;28;20528;-72
2024/02/15 06:42:18;;;;;;;23.08;8.45;;;;;;;10.60;100.00;101399.88;5086040;28;20079;-71
2024/02/15 06:44:47;;;;;;;23.20;8.52;;;;;;;10.58;100.00;101406.91;5086381;28;20035;-77
2024/02/15 06:47:15;;;;;;;23.48;8.10;;;;;;;10.59;100.00;101414.88;5085551;28;20020;-74
2024/02/15 06:49:41;;;;;;;22.05;7.93;;;;;;;10.64;100.00;101414.94;5086244;28;20031;-76
2024/02/15 06:52:11;;;;;;;22.00;8.50;;;;;;;10.63;100.00;101424.63;5068605;28;20028;-78
2024/02/15 06:54:40;;;;;;;24.10;8.43;;;;;;;10.62;100.00;101421.97;5067638;28;20098;-80
2024/02/15 06:57:06;;;;;;;23.63;8.50;;;;;;;10.62;100.00;101430.78;5086525;28;20028;-79
2024/02/15 06:59:32;;;;;;;23.90;8.80;;;;;;;10.64;100.00;101425.50;5084985;28;20028;-76
2024/02/15 07:01:59;;;;;;;21.63;8.27;;;;;;;10.62;100.00;101422.84;5088026;28;20379;-78
2024/02/15 07:04:27;;;;;;;21.92;7.93;;;;;;;10.67;100.00;101424.66;5084338;28;20031;-78
2024/02/15 07:06:54;;;;;;;22.75;8.30;;;;;;;10.65;100.00;101427.28;5084522;28;20055;-77
2024/02/15 07:09:22;;;;;;;22.83;8.40;;;;;;;10.66;100.00;101425.53;5087758;28;20433;-78
2024/02/15 07:11:48;;;;;;;23.70;8.82;;;;;;;10.66;100.00;101422.88;5083436;28;20073;-79
2024/02/15 07:14:13;;;;;;;23.85;8.95;;;;;;;10.65;100.00;101414.06;5087627;28;20418;-78
2024/02/15 07:16:39;;;;;;;19.73;8.27;;;;;;;10.66;100.00;101409.66;5067752;28;20036;-79
2024/02/15 07:19:05;;;;;;;23.73;8.43;;;;;;;10.67;100.00;101400.88;5083909;28;20039;-80
2024/02/15 07:21:31;;;;;;;22.60;8.48;;;;;;;10.68;100.00;101403.53;5086657;28;20047;-80
2024/02/15 07:23:57;;;;;;;22.75;8.40;;;;;;;10.69;100.00;101397.38;5084067;28;20066;-78
2024/02/15 07:26:27;;;;;;;23.45;8.65;;;;;;;10.69;100.00;101402.66;5083630;28;20056;-79
2024/02/15 07:28:53;;;;;;;23.13;8.88;;;;;;;10.68;100.00;101403.53;5083651;28;20036;-78
2024/02/15 07:31:23;;;;;;;24.83;9.02;;;;;;;10.70;100.00;101422.06;5086854;28;20024;-77
2024/02/15 07:33:51;;;;;;;23.95;9.10;;;;;;;10.70;100.00;101412.34;5084092;28;20107;-74
2024/02/15 07:36:21;;;;;;;23.05;9.65;;;;;;;10.71;100.00;101422.06;5086119;28;20024;-76
2024/02/15 07:38:48;;;;;;;23.13;9.32;;;;;;;10.71;100.00;101429.13;5084040;28;20119;-78
2024/02/15 07:41:13;;;;;;;23.42;9.48;;;;;;;10.71;100.00;101424.72;5067638;28;20383;-76
2024/02/15 07:43:40;;;;;;;23.63;9.68;;;;;;;10.70;100.00;101412.34;5085160;28;20087;-76
2024/02/15 07:46:06;;;;;;;25.25;9.90;;;;;;;10.72;100.00;101417.69;5084296;28;20061;-78
2024/02/15 07:48:32;;;;;;;24.70;9.18;;;;;;;10.72;100.00;101415.06;5086616;28;20056;-75
2024/02/15 07:50:58;;;;;;;23.25;9.05;;;;;;;10.70;100.00;101415.00;5065347;28;20468;-74
2024/02/15 07:53:24;;;;;;;21.90;8.07;;;;;;;10.71;100.00;101419.44;5065269;28;20435;-78
2024/02/15 07:55:50;;;;;;;22.55;8.27;;;;;;;10.68;100.00;101410.59;5086352;28;20067;-77
2024/02/15 07:58:18;;;;;;;23.90;8.15;;;;;;;10.68;100.00;101411.47;5083685;28;20035;-74
2024/02/15 08:00:44;;;;;;;23.20;7.38;;;;;;;10.68;100.00;101418.53;5085481;28;20016;-74
2024/02/15 08:03:10;;;;;;;23.35;8.13;;;;;;;10.69;100.00;101420.25;5066840;28;20039;-73
2024/02/15 08:05:37;;;;;;;20.15;6.40;;;;;;;10.69;100.00;101402.66;5083737;28;20025;-75
2024/02/15 08:08:03;;;;;;;21.92;6.97;;;;;;;10.70;100.00;101391.19;5085815;28;20506;-74
2024/02/15 08:10:29;;;;;;;21.60;6.70;;;;;;;10.72;100.00;101402.69;5082861;28;20166;-73
2024/02/15 08:12:57;;;;;;;21.30;6.85;;;;;;;10.73;100.00;101409.78;5086414;28;20040;-78
2024/02/15 08:15:24;;;;;;;21.95;6.75;;;;;;;10.71;100.00;101414.13;5068298;28;20107;-73
2024/02/15 08:17:49;;;;;;;21.65;7.05;;;;;;;10.72;100.00;101402.69;5082752;28;20471;-79
2024/02/15 08:20:21;;;;;;;21.02;6.57;;;;;;;10.72;100.00;101400.06;5084864;28;20109;-78
2024/02/15 08:22:47;;;;;;;22.45;6.45;;;;;;;10.74;100.00;101395.66;5065187;28;20494;-79
2024/02/15 08:25:15;;;;;;;20.33;6.43;;;;;;;10.77;100.00;101393.06;5084687;28;20031;-70
2024/02/15 08:27:49;;;;;;;22.08;6.47;;;;;;;10.77;100.00;101397.47;5083782;28;20042;-71
2024/02/15 08:30:15;;;;;;;18.77;6.38;;;;;;;10.79;100.00;101391.34;5083713;28;20408;-72
2024/02/15 08:32:42;;;;;;;20.67;6.55;;;;;;;10.79;100.00;101395.72;5085912;28;20021;-70
2024/02/15 08:35:11;;;;;;;20.05;6.50;;;;;;;10.78;100.00;101394.84;5084539;28;20466;-76
2024/02/15 08:37:38;;;;;;;20.35;6.57;;;;;;;10.75;100.00;101389.50;5066552;28;20036;-78
2024/02/15 08:40:10;;;;;;;21.27;6.32;;;;;;;10.75;100.00;101386.88;5085931;28;20103;-71
2024/02/15 08:42:36;;;;;;;21.38;6.25;;;;;;;10.75;100.00;101386.88;5083765;28;20075;-76
2024/02/15 08:45:01;;;;;;;20.52;6.97;;;;;;;10.74;100.00;101382.44;5085788;28;20067;-74
2024/02/15 08:47:27;;;;;;;22.05;6.57;;;;;;;10.76;100.00;101378.06;5082812;28;20033;-77
2024/02/15 08:49:52;;;;;;;22.50;6.38;;;;;;;10.78;100.00;101381.63;5082864;28;20036;-75
2024/02/15 08:52:18;;;;;;;19.58;6.10;;;;;;;10.76;100.00;101370.16;5085002;28;20482;-76
2024/02/15 08:54:44;;;;;;;21.92;6.45;;;;;;;10.77;100.00;101382.47;5083847;28;20112;-79
2024/02/15 08:57:09;;;;;;;20.00;6.30;;;;;;;10.76;100.00;101375.44;5084199;28;20360;-79
2024/02/15 08:59:34;;;;;;;22.75;7.45;;;;;;;10.79;100.00;101386.03;5085507;28;20075;-79
2024/02/15 09:02:00;;;;;;;28.88;15.07;;;;;;;10.80;100.00;101387.81;5064813;28;20028;-78
2024/02/15 09:04:26;;;;;;;21.55;7.95;;;;;;;10.79;100.00;101382.50;5081772;28;20032;-78
2024/02/15 09:06:52;;;;;;;22.15;6.68;;;;;;;10.79;100.00;101383.41;5084878;28;20028;-79
2024/02/15 09:09:17;;;;;;;21.33;7.25;;;;;;;10.80;100.00;101377.25;5064808;28;20359;-73
2024/02/15 09:11:43;;;;;;;21.00;6.55;;;;;;;10.82;100.00;101375.50;5083690;28;20025;-73
2024/02/15 09:14:11;;;;;;;21.35;6.38;;;;;;;10.86;100.00;101387.00;5083615;28;20509;-72
2024/02/15 09:16:36;;;;;;;20.90;6.18;;;;;;;10.91;100.00;101377.38;5064616;28;20089;-74
2024/02/15 09:19:01;;;;;;;20.05;6.20;;;;;;;10.96;100.00;101380.06;5084445;28;20463;-73
2024/02/15 09:21:29;;;;;;;19.45;6.05;;;;;;;11.02;100.00;101385.41;5081473;28;20361;-73
2024/02/15 09:23:54;;;;;;;21.10;5.93;;;;;;;11.03;100.00;101379.25;5081610;28;20035;-71
2024/02/15 09:26:20;;;;;;;19.83;5.90;;;;;;;11.08;100.00;101382.84;5084279;28;20474;-73
2024/02/15 09:28:45;;;;;;;20.33;5.90;;;;;;;11.07;100.00;101381.06;5082309;28;20489;-74
2024/02/15 09:31:13;;;;;;;18.63;5.30;;;;;;;11.08;100.00;101382.84;5083052;28;20064;-76
2024/02/15 09:33:39;;;;;;;20.13;5.60;;;;;;;11.15;100.00;101381.13;5083045;28;20040;-73
2024/02/15 09:36:05;;;;;;;19.83;5.90;;;;;;;11.13;100.00;101370.53;5081883;28;20437;-71
2024/02/15 09:38:30;;;;;;;19.58;5.75;;;;;;;11.21;100.00;101369.72;5080182;28;20031;-73
2024/02/15 09:40:56;;;;;;;20.40;5.57;;;;;;;11.27;100.00;101372.44;5080942;28;20063;-77
2024/02/15 09:43:24;;;;;;;19.08;5.40;;;;;;;11.26;100.00;101383.91;5084428;28;20048;-79
2024/02/15 09:45:50;;;;;;;20.30;7.32;;;;;;;11.28;100.00;101380.38;5080990;28;20491;-79
2024/02/15 09:48:17;;;;;;;23.00;5.68;;;;;;;11.30;100.00;101380.41;5080441;28;20043;-79
2024/02/15 09:50:46;;;;;;;18.48;5.40;;;;;;;11.31;100.00;101383.09;5081770;28;20082;-72
2024/02/15 09:53:12;;;;;;;20.13;5.15;;;;;;;11.30;100.00;101381.31;5084132;28;20463;-71
2024/02/15 09:55:41;;;;;;;18.02;4.60;;;;;;;11.30;100.00;101385.69;5082007;28;20031;-72
2024/02/15 09:58:08;;;;;;;18.50;4.70;;;;;;;11.25;100.00;101383.00;5083113;28;20031;-70
2024/02/15 10:00:34;;;;;;;17.90;4.75;;;;;;;11.27;100.00;101377.72;5062273;28;20032;-71
2024/02/15 10:03:02;;;;;;;18.45;4.97;;;;;;;11.25;100.00;101375.06;5082676;28;20052;-75
2024/02/15 10:05:28;;;;;;;18.35;4.55;;;;;;;11.21;100.00;101367.09;5081867;28;20032;-70
2024/02/15 10:07:53;;;;;;;18.45;4.85;;;;;;;11.22;100.00;101374.16;5084209;28;20111;-77
2024/02/15 10:10:25;;;;;;;20.63;5.00;;;;;;;11.24;100.00;101372.41;5062509;28;20064;-70
2024/02/15 10:12:51;;;;;;;18.83;5.17;;;;;;;11.22;100.00;101366.22;5065319;28;20032;-74
2024/02/15 10:15:35;;;;;;;20.10;5.55;;;;;;;11.29;100.00;101370.72;5081237;28;20024;-71
2024/02/15 10:18:02;;;;;;;18.73;5.00;;;;;;;11.25;100.00;101374.19;5082145;28;20024;-72
2024/02/15 10:20:28;;;;;;;18.75;5.00;;;;;;;11.27;100.00;101372.44;5082914;28;20056;-78
2024/02/15 10:22:59;;;;;;;19.60;5.40;;;;;;;11.34;100.00;101372.53;5083197;28;20059;-74
2024/02/15 10:25:29;;;;;;;19.05;5.43;;;;;;;11.37;100.00;101374.28;5082537;28;20025;-71
2024/02/15 10:28:12;;;;;;;17.95;4.68;;;;;;;11.45;100.00;101366.44;5082889;28;20020;-74
2024/02/15 10:30:39;;;;;;;18.25;4.38;;;;;;;11.41;100.00;101376.09;5083563;28;20065;-77
2024/02/15 10:33:07;;;;;;;19.20;4.72;;;;;;;11.46;100.00;101371.75;5080968;28;20029;-76
2024/02/15 10:35:36;;;;;;;17.92;4.80;;;;;;;11.50;100.00;101370.00;5083234;28;20475;-77
2024/02/15 10:38:07;;;;;;;17.63;4.60;;;;;;;11.56;100.00;101378.00;5081712;28;20036;-83
2024/02/15 10:40:33;;;;;;;18.80;4.80;;;;;;;11.59;100.00;101364.81;5083013;28;20029;-77
2024/02/15 10:42:59;;;;;;;18.40;4.50;;;;;;;11.71;100.00;101371.06;5081868;28;20393;-80
2024/02/15 10:45:25;;;;;;;16.52;4.63;;;;;;;11.78;100.00;101372.88;5082332;28;20048;-82
2024/02/15 10:47:51;;;;;;;16.27;4.10;;;;;;;11.91;100.00;101371.22;5083896;28;20028;-82
2024/02/15 10:50:16;;;;;;;18.33;4.10;;;;;;;11.95;100.00;101365.97;5081690;28;20475;-82
2024/02/15 10:53:22;;;;;;;16.15;4.10;;;;;;;11.98;100.00;101373.06;5084703;28;20029;-83
2024/02/15 10:56:06;;;;;;;15.75;3.80;;;;;;;12.05;100.00;101374.00;5064185;28;20040;-83
2024/02/15 10:58:46;;;;;;;15.35;3.97;;;;;;;12.06;100.00;101371.38;5087199;28;20036;-83
2024/02/15 11:01:17;;;;;;;15.27;3.80;;;;;;;12.13;100.00;101365.22;5084778;28;20029;-84
2024/02/15 11:03:52;;;;;;;14.13;3.65;;;;;;;12.24;100.00;101364.41;5085203;28;20475;-84
2024/02/15 11:06:21;;;;;;;17.42;3.78;;;;;;;12.26;100.00;101362.63;5085270;28;20470;-83
2024/02/15 11:08:47;;;;;;;15.10;3.90;;;;;;;12.28;100.00;101347.66;5087894;28;20420;-84
2024/02/15 11:11:14;;;;;;;16.52;4.25;;;;;;;12.39;100.00;101345.91;5084881;28;20024;-83
2024/02/15 11:13:40;;;;;;;16.77;4.28;;;;;;;12.50;100.00;101340.69;5087703;28;20035;-83
2024/02/15 11:16:05;;;;;;;18.25;4.43;;;;;;;12.64;100.00;101343.38;5085705;28;20036;-84
2024/02/15 11:18:51;;;;;;;16.63;4.20;;;;;;;12.85;100.00;101346.09;5087157;28;20135;-84